Time;durP1;ratioP1;P1;durP2;ratioP2;P2;SDS_P1;SDS_P2;PMS_P1;PMS_P2;Temp;Humidity;BMP_temperature;BMP_pressure;BME280_temperature;BME280_humidity;BME280_pressure;Samples;Min_cycle;Max_cycle;Signal;HPM_P1;HPM_P2
2021/01/09 00:05:24;;;;;;;20.27;8.70;;;2.70;82.40;;;;;;4956353;29;20118;-83
2021/01/09 00:11:13;;;;;;;15.43;6.22;;;2.70;82.40;;;;;;4956393;29;20383;-81
2021/01/09 00:20:50;;;;;;;20.13;8.38;;;2.70;82.30;;;;;;4956435;29;20090;-81
2021/01/09 00:26:38;;;;;;;17.88;7.15;;;2.70;82.30;;;;;;4956284;29;20038;-81
2021/01/09 00:32:26;;;;;;;22.75;8.32;;;2.70;82.10;;;;;;4956077;29;20069;-81
2021/01/09 00:38:13;;;;;;;19.48;7.90;;;2.60;82.00;;;;;;4955846;29;20078;-81
2021/01/09 00:44:01;;;;;;;23.83;10.73;;;2.60;82.20;;;;;;4955893;29;20079;-81
2021/01/09 00:49:49;;;;;;;22.52;8.93;;;2.60;82.20;;;;;;4955859;29;20058;-81
2021/01/09 00:55:36;;;;;;;15.27;6.75;;;2.60;82.10;;;;;;4955829;29;20026;-81
2021/01/09 01:01:24;;;;;;;19.23;7.40;;;2.50;82.00;;;;;;4955745;29;20387;-81
2021/01/09 01:07:11;;;;;;;22.50;9.82;;;2.50;82.20;;;;;;4955599;29;20132;-81
2021/01/09 01:12:59;;;;;;;16.80;6.63;;;2.50;82.40;;;;;;4955727;29;20379;-83
2021/01/09 01:22:21;;;;;;;17.33;7.70;;;2.50;82.20;;;;;;4955583;29;20399;-82
2021/01/09 01:28:09;;;;;;;9.57;4.38;;;2.50;82.20;;;;;;4955389;29;20042;-80
2021/01/09 01:33:56;;;;;;;17.45;7.70;;;2.40;82.20;;;;;;4955575;29;20041;-83
2021/01/09 01:39:44;;;;;;;18.55;7.22;;;2.40;82.20;;;;;;4958868;29;20054;-83
2021/01/09 01:45:31;;;;;;;6.78;3.55;;;2.40;82.10;;;;;;4959101;29;20039;-85
2021/01/09 01:51:19;;;;;;;15.02;5.82;;;2.50;82.50;;;;;;4959070;29;20086;-84
2021/01/09 01:57:09;;;;;;;20.90;9.50;;;2.50;82.40;;;;;;4958931;29;20434;-84
2021/01/09 02:03:00;;;;;;;7.90;3.65;;;2.40;81.70;;;;;;4959579;29;20455;-84
2021/01/09 02:09:05;;;;;;;18.50;7.47;;;2.10;81.40;;;;;;4963684;28;20547;-85
2021/01/09 02:14:56;;;;;;;11.82;4.70;;;2.10;82.20;;;;;;4958677;29;20046;-80
2021/01/09 02:24:32;;;;;;;7.95;3.22;;;1.90;81.30;;;;;;4958153;29;20042;-81
2021/01/09 02:30:27;;;;;;;10.65;4.32;;;1.80;82.20;;;;;;4958273;29;20051;-81
2021/01/09 02:36:16;;;;;;;10.20;3.80;;;1.90;82.50;;;;;;4958049;29;20106;-82
2021/01/09 02:42:04;;;;;;;10.00;4.22;;;1.90;82.50;;;;;;4958383;29;20494;-82
2021/01/09 02:47:52;;;;;;;9.30;3.53;;;1.90;82.50;;;;;;4956760;28;20053;-82
2021/01/09 02:53:40;;;;;;;12.05;3.97;;;2.00;82.70;;;;;;4957950;29;20082;-82
2021/01/09 02:59:27;;;;;;;9.50;3.97;;;2.00;82.50;;;;;;4958028;29;20407;-82
2021/01/09 03:05:15;;;;;;;10.32;4.20;;;2.10;82.60;;;;;;4958052;29;20078;-82
2021/01/09 03:11:02;;;;;;;11.05;4.07;;;2.10;82.60;;;;;;4957641;29;20029;-80
2021/01/09 03:16:50;;;;;;;11.27;4.68;;;2.10;82.50;;;;;;4957423;29;20035;-80
2021/01/09 03:22:37;;;;;;;11.57;4.50;;;2.10;82.40;;;;;;4956398;28;20407;-81
2021/01/09 03:28:25;;;;;;;13.25;5.93;;;2.10;82.70;;;;;;4957067;29;20038;-81
2021/01/09 03:34:13;;;;;;;12.95;5.80;;;2.20;82.80;;;;;;4957335;29;20047;-80
2021/01/09 03:40:00;;;;;;;15.93;5.80;;;2.20;82.60;;;;;;4956981;29;20487;-80
2021/01/09 03:45:48;;;;;;;15.88;6.90;;;2.20;82.20;;;;;;4956886;29;20498;-81
2021/01/09 03:51:35;;;;;;;18.10;6.63;;;2.10;82.40;;;;;;4956922;29;20042;-81
2021/01/09 03:57:22;;;;;;;22.02;8.90;;;2.00;82.30;;;;;;4956399;29;20391;-83
2021/01/09 04:03:10;;;;;;;19.75;7.40;;;2.10;82.50;;;;;;4956694;29;20102;-83
2021/01/09 04:09:01;;;;;;;18.50;6.95;;;2.10;82.40;;;;;;4956291;29;20050;-82
2021/01/09 04:14:48;;;;;;;20.65;8.48;;;2.00;82.40;;;;;;4956350;29;20050;-82
2021/01/09 04:20:36;;;;;;;15.27;6.15;;;2.00;82.40;;;;;;4956454;29;20180;-82
2021/01/09 04:26:23;;;;;;;25.88;10.50;;;2.10;82.90;;;;;;4956258;29;20130;-82
2021/01/09 04:32:11;;;;;;;21.90;8.60;;;2.10;82.60;;;;;;4956090;29;20034;-81
2021/01/09 04:37:59;;;;;;;19.40;8.40;;;2.10;82.80;;;;;;4956100;29;20033;-82
2021/01/09 04:43:48;;;;;;;19.55;8.48;;;2.10;82.60;;;;;;4955977;29;20404;-82
2021/01/09 04:49:40;;;;;;;25.30;9.65;;;2.20;83.10;;;;;;4956265;29;20149;-82
2021/01/09 04:55:28;;;;;;;21.88;9.60;;;2.20;82.70;;;;;;4961827;29;20086;-82
2021/01/09 05:01:17;;;;;;;20.45;9.13;;;2.20;82.70;;;;;;4955922;29;20490;-81
2021/01/09 05:07:04;;;;;;;20.42;8.65;;;2.30;83.20;;;;;;4955718;29;20546;-84
2021/01/09 05:12:52;;;;;;;22.45;9.40;;;2.20;82.80;;;;;;4959814;29;20486;-83
2021/01/09 05:18:41;;;;;;;23.70;9.93;;;2.20;82.60;;;;;;4959665;29;20519;-84
2021/01/09 05:28:17;;;;;;;21.35;9.27;;;2.10;82.70;;;;;;4959424;29;20082;-84
2021/01/09 05:34:05;;;;;;;19.85;7.93;;;2.20;83.10;;;;;;4959475;29;20089;-80
2021/01/09 05:39:58;;;;;;;23.00;8.15;;;2.20;82.90;;;;;;4959140;29;20034;-80
2021/01/09 05:45:45;;;;;;;23.98;8.75;;;2.20;82.80;;;;;;4959178;29;20043;-80
2021/01/09 05:51:35;;;;;;;21.52;8.85;;;2.30;83.10;;;;;;4959138;29;20038;-80
2021/01/09 05:57:30;;;;;;;15.43;6.88;;;2.20;82.90;;;;;;4958919;29;20034;-81
2021/01/09 06:03:35;;;;;;;19.75;8.40;;;2.20;82.60;;;;;;4959164;29;20026;-81
2021/01/09 06:09:32;;;;;;;21.73;9.13;;;2.20;82.90;;;;;;4958329;29;20046;-81
2021/01/09 06:15:26;;;;;;;20.40;9.43;;;2.20;83.00;;;;;;4958560;29;20487;-83
2021/01/09 06:21:14;;;;;;;25.38;9.55;;;2.20;83.40;;;;;;4957660;28;20030;-84
2021/01/09 06:31:08;;;;;;;22.30;8.32;;;2.30;83.10;;;;;;4958182;29;20034;-86
2021/01/09 06:36:58;;;;;;;19.90;8.57;;;2.30;83.00;;;;;;4958325;29;20086;-85
2021/01/09 06:42:48;;;;;;;25.48;9.45;;;2.30;83.00;;;;;;4958212;29;20030;-84
2021/01/09 06:48:36;;;;;;;22.05;9.95;;;2.30;82.80;;;;;;4957940;29;20522;-85
2021/01/09 06:54:25;;;;;;;19.63;8.77;;;2.20;82.70;;;;;;4957936;29;20042;-85
2021/01/09 07:00:16;;;;;;;23.15;9.32;;;2.10;82.80;;;;;;4957802;29;20038;-85
2021/01/09 07:06:04;;;;;;;19.75;9.02;;;2.10;83.10;;;;;;4958883;29;20059;-87
2021/01/09 07:11:54;;;;;;;20.67;8.55;;;2.20;83.20;;;;;;4958217;29;20152;-87
2021/01/09 07:17:46;;;;;;;20.52;8.95;;;2.20;82.80;;;;;;4958246;29;20065;-90
2021/01/09 07:23:34;;;;;;;21.45;8.90;;;2.10;82.80;;;;;;4958096;29;20038;-90
2021/01/09 07:33:26;;;;;;;26.50;9.18;;;2.10;82.90;;;;;;4957132;28;20045;-86
2021/01/09 07:39:14;;;;;;;22.45;8.40;;;2.10;83.00;;;;;;4960637;29;20074;-89
2021/01/09 07:45:07;;;;;;;20.30;8.50;;;2.10;83.30;;;;;;4957638;29;20114;-92
2021/01/09 07:50:55;;;;;;;19.13;8.18;;;2.20;83.20;;;;;;4957841;29;20166;-90
2021/01/09 07:56:43;;;;;;;21.80;10.45;;;2.20;82.80;;;;;;4957407;29;20105;-86
2021/01/09 08:02:33;;;;;;;21.77;9.18;;;2.10;82.80;;;;;;4956746;29;20042;-85
2021/01/09 08:08:21;;;;;;;19.15;8.73;;;2.10;83.00;;;;;;4956521;29;20470;-85
2021/01/09 08:14:09;;;;;;;17.48;7.93;;;2.10;82.70;;;;;;4956241;29;20026;-86
2021/01/09 08:20:04;;;;;;;23.73;9.35;;;2.00;82.60;;;;;;4957014;29;20038;-88
2021/01/09 08:25:53;;;;;;;22.33;9.25;;;1.90;82.50;;;;;;4956650;29;20038;-86
2021/01/09 08:35:50;;;;;;;18.88;8.40;;;1.70;82.70;;;;;;4955987;29;20105;-84
2021/01/09 08:42:02;;;;;;;23.20;8.50;;;1.90;83.90;;;;;;4956346;29;20038;-86
2021/01/09 08:47:51;;;;;;;19.25;8.25;;;2.30;83.90;;;;;;4956657;29;20460;-89
2021/01/09 08:53:54;;;;;;;19.92;7.72;;;2.60;84.30;;;;;;4957810;29;20038;-91
2021/01/09 08:59:44;;;;;;;14.65;6.63;;;2.70;83.70;;;;;;4957091;29;20090;-91
2021/01/09 09:05:32;;;;;;;15.00;6.40;;;2.90;84.20;;;;;;4957092;29;20117;-90
2021/01/09 09:11:25;;;;;;;16.23;7.20;;;3.00;83.80;;;;;;4961299;29;20026;-92
2021/01/09 09:17:20;;;;;;;17.67;5.95;;;3.00;83.70;;;;;;4957491;29;20150;-89
2021/01/09 09:23:17;;;;;;;15.40;6.78;;;3.10;83.70;;;;;;4959740;29;20078;-91
2021/01/09 09:29:54;;;;;;;14.45;6.68;;;3.10;83.60;;;;;;4956195;29;20086;-93
2021/01/09 09:32:30;;;;;;;14.02;5.82;;;3.00;82.80;;;;;;4862480;29;20609;-91
2021/01/09 09:38:43;;;;;;;14.20;5.78;;;2.80;82.70;;;;;;4955957;29;20078;-93
2021/01/09 09:44:42;;;;;;;16.85;6.57;;;2.60;82.50;;;;;;4956297;29;20098;-89
2021/01/09 09:50:36;;;;;;;15.55;5.93;;;2.50;83.00;;;;;;4957309;29;20423;-93
2021/01/09 09:56:25;;;;;;;14.23;5.22;;;2.60;83.40;;;;;;4959043;28;20034;-89
2021/01/09 10:02:20;;;;;;;15.52;5.95;;;3.30;86.90;;;;;;4958926;29;20043;-81
2021/01/09 10:08:17;;;;;;;12.90;5.22;;;4.30;86.10;;;;;;4958591;29;20086;-81
2021/01/09 10:14:06;;;;;;;11.15;4.90;;;4.40;84.10;;;;;;4958709;29;20050;-85
2021/01/09 10:19:53;;;;;;;11.68;5.03;;;4.50;83.70;;;;;;4959272;29;20407;-88
2021/01/09 10:25:41;;;;;;;13.77;5.78;;;4.10;83.10;;;;;;4964739;29;20041;-88
2021/01/09 10:31:30;;;;;;;21.02;10.13;;;4.20;83.90;;;;;;4963702;29;20050;-91
2021/01/09 10:37:18;;;;;;;13.75;5.22;;;4.20;83.30;;;;;;4961992;29;20054;-85
2021/01/09 10:43:06;;;;;;;13.70;6.15;;;3.90;82.80;;;;;;4962215;29;20104;-85
2021/01/09 10:48:56;;;;;;;14.43;6.43;;;4.10;84.70;;;;;;4962202;29;20144;-85
2021/01/09 10:54:49;;;;;;;13.20;5.90;;;4.00;83.30;;;;;;4962128;29;20041;-85
2021/01/09 11:00:38;;;;;;;15.27;6.00;;;4.90;86.60;;;;;;4962807;29;20069;-85
2021/01/09 11:06:25;;;;;;;20.30;9.93;;;5.10;83.20;;;;;;4960702;29;20059;-87
2021/01/09 11:12:13;;;;;;;11.93;5.38;;;4.50;81.40;;;;;;4961260;29;20118;-91
2021/01/09 11:18:01;;;;;;;11.50;4.95;;;4.10;82.80;;;;;;4958074;29;20087;-91
2021/01/09 11:23:49;;;;;;;9.45;3.95;;;4.40;85.30;;;;;;4958470;29;20079;-91
2021/01/09 11:29:37;;;;;;;10.45;4.97;;;5.30;86.70;;;;;;4957713;29;20074;-91
2021/01/09 11:39:26;;;;;;;14.57;6.38;;;6.80;82.70;;;;;;4959825;29;20124;-92
2021/01/09 11:45:15;;;;;;;13.07;5.18;;;5.80;81.80;;;;;;4957726;29;20025;-93
2021/01/09 11:51:03;;;;;;;11.35;4.90;;;6.20;87.00;;;;;;4957779;29;20046;-89
2021/01/09 11:56:56;;;;;;;11.50;5.28;;;7.70;89.80;;;;;;4957020;29;20532;-89
2021/01/09 12:02:44;;;;;;;10.40;4.43;;;7.60;82.70;;;;;;4957569;29;20050;-88
2021/01/09 12:08:31;;;;;;;13.30;5.13;;;7.50;83.60;;;;;;4957037;29;20114;-90
2021/01/09 12:14:19;;;;;;;11.75;5.32;;;7.20;83.00;;;;;;4957396;29;20082;-92
2021/01/09 12:20:07;;;;;;;10.88;4.63;;;7.10;82.70;;;;;;4957085;28;20046;-90
2021/01/09 12:25:57;;;;;;;11.27;4.13;;;6.60;81.50;;;;;;4956737;29;20118;-89
2021/01/09 12:31:45;;;;;;;11.35;4.38;;;5.90;81.90;;;;;;4956978;29;20033;-89
2021/01/09 12:41:37;;;;;;;10.32;4.25;;;5.60;83.10;;;;;;4957377;29;20097;-89
2021/01/09 12:47:25;;;;;;;8.98;3.53;;;5.20;81.70;;;;;;4958126;29;20067;-90
2021/01/09 12:53:13;;;;;;;9.73;4.38;;;5.90;88.10;;;;;;4956840;29;20065;-89
2021/01/09 12:59:03;;;;;;;11.13;4.40;;;7.40;87.00;;;;;;4957281;29;20057;-90
2021/01/09 13:04:50;;;;;;;11.00;4.53;;;7.60;83.30;;;;;;4956803;29;20102;-89
2021/01/09 13:10:38;;;;;;;8.57;3.22;;;6.70;81.30;;;;;;4956909;29;20070;-90
2021/01/09 13:16:26;;;;;;;10.10;4.75;;;5.90;81.60;;;;;;4961850;29;20046;-90
2021/01/09 13:22:14;;;;;;;9.57;3.95;;;5.70;82.30;;;;;;4956500;29;20031;-90
2021/01/09 13:28:01;;;;;;;10.90;4.68;;;5.50;82.40;;;;;;4956026;29;20042;-88
2021/01/09 13:33:49;;;;;;;10.38;4.60;;;5.30;83.00;;;;;;4960014;29;20042;-89
2021/01/09 13:43:31;;;;;;;11.45;4.50;;;5.20;82.20;;;;;;4960520;29;20104;-90
2021/01/09 13:49:19;;;;;;;10.52;4.38;;;4.90;81.80;;;;;;4959477;29;20135;-89
2021/01/09 13:55:07;;;;;;;10.20;4.43;;;4.50;81.80;;;;;;4959853;29;20034;-90
2021/01/09 14:00:55;;;;;;;10.02;4.28;;;4.40;81.80;;;;;;4959517;29;20038;-90
2021/01/09 14:06:43;;;;;;;9.02;3.83;;;4.30;82.40;;;;;;4961459;29;20550;-89
2021/01/09 14:12:32;;;;;;;9.50;3.45;;;4.20;82.30;;;;;;4959187;29;20111;-90
2021/01/09 14:18:19;;;;;;;9.93;3.92;;;4.10;81.80;;;;;;4959327;29;20034;-89
2021/01/09 14:24:07;;;;;;;10.65;4.32;;;4.00;82.00;;;;;;4958274;29;20082;-78
2021/01/09 14:29:55;;;;;;;9.50;4.25;;;4.00;82.80;;;;;;4957945;29;20526;-78
2021/01/09 14:35:43;;;;;;;11.15;4.55;;;3.90;82.30;;;;;;4958145;29;20035;-80
2021/01/09 14:41:31;;;;;;;12.00;5.18;;;3.90;82.20;;;;;;4950996;28;20562;-77
2021/01/09 14:47:18;;;;;;;13.10;5.93;;;3.80;81.70;;;;;;4957876;29;20062;-78
2021/01/09 14:53:06;;;;;;;24.25;11.10;;;3.60;81.50;;;;;;4958045;29;20541;-77
2021/01/09 14:58:54;;;;;;;12.90;4.88;;;3.40;81.50;;;;;;4957600;29;20094;-80
2021/01/09 15:04:41;;;;;;;16.30;7.22;;;3.30;81.50;;;;;;4957386;29;20042;-86
2021/01/09 15:10:29;;;;;;;11.25;3.97;;;3.30;81.90;;;;;;4957826;29;20047;-91
2021/01/09 15:16:31;;;;;;;9.32;4.00;;;3.20;82.00;;;;;;4957604;29;20034;-85
2021/01/09 15:22:19;;;;;;;9.52;4.63;;;3.10;81.70;;;;;;4957253;29;20391;-85
2021/01/09 15:28:35;;;;;;;8.75;3.83;;;3.10;81.80;;;;;;4956977;29;20047;-85
2021/01/09 15:34:45;;;;;;;12.52;5.63;;;3.00;81.80;;;;;;4960107;29;20439;-85
2021/01/09 15:41:13;;;;;;;16.40;7.93;;;3.00;81.80;;;;;;4961939;28;20030;-92
2021/01/09 15:47:11;;;;;;;13.65;5.88;;;2.90;81.50;;;;;;4965574;29;20031;-93
2021/01/09 15:53:44;;;;;;;13.57;5.47;;;2.70;81.10;;;;;;4960944;29;20098;-86
2021/01/09 15:59:34;;;;;;;15.02;7.20;;;2.60;81.70;;;;;;4957073;29;20035;-87
2021/01/09 16:05:22;;;;;;;32.10;15.82;;;2.60;81.40;;;;;;4963102;29;20029;-88
2021/01/09 16:11:13;;;;;;;13.25;5.13;;;2.50;81.30;;;;;;4958034;29;20050;-87
2021/01/09 16:17:00;;;;;;;9.70;5.03;;;2.50;81.70;;;;;;4956978;29;20511;-86
2021/01/09 16:22:48;;;;;;;13.23;5.03;;;2.50;81.40;;;;;;4956769;29;20490;-87
2021/01/09 16:28:36;;;;;;;12.15;5.25;;;2.40;81.70;;;;;;4956734;29;20138;-87
2021/01/09 16:34:23;;;;;;;11.45;5.18;;;2.40;81.30;;;;;;4960991;29;20062;-86
2021/01/09 16:40:11;;;;;;;13.95;6.95;;;2.30;81.40;;;;;;4961467;29;20124;-93
2021/01/09 16:45:59;;;;;;;13.18;6.43;;;2.30;81.60;;;;;;4959865;29;20041;-88
2021/01/09 16:51:48;;;;;;;10.43;4.57;;;2.40;82.00;;;;;;4959481;29;20030;-88
2021/01/09 16:57:35;;;;;;;12.32;4.78;;;2.40;81.80;;;;;;4960708;29;20054;-94
2021/01/09 17:03:23;;;;;;;19.77;8.40;;;2.40;81.50;;;;;;4959321;29;20045;-83
2021/01/09 17:09:12;;;;;;;13.52;5.43;;;2.40;81.50;;;;;;4958221;29;20570;-85
2021/01/09 17:15:00;;;;;;;8.45;3.88;;;2.40;81.40;;;;;;4959719;29;20094;-84
2021/01/09 17:20:48;;;;;;;13.65;5.82;;;2.30;80.90;;;;;;4959165;29;20086;-83
2021/01/09 17:26:42;;;;;;;24.92;12.20;;;2.20;81.30;;;;;;4959890;29;20051;-83
2021/01/09 17:32:29;;;;;;;12.98;5.47;;;2.30;81.50;;;;;;4958834;29;20059;-83
2021/01/09 17:38:17;;;;;;;14.48;5.28;;;2.30;81.60;;;;;;4959471;29;20044;-83
2021/01/09 17:47:53;;;;;;;15.15;7.15;;;2.20;81.20;;;;;;4959274;29;20038;-86
2021/01/09 17:53:43;;;;;;;13.73;5.97;;;2.20;81.10;;;;;;4959115;29;20083;-84
2021/01/09 17:59:31;;;;;;;17.00;6.75;;;2.20;81.20;;;;;;4955229;29;20388;-84
2021/01/09 18:05:18;;;;;;;12.75;6.03;;;2.20;81.40;;;;;;4955299;29;20045;-84
2021/01/09 18:11:06;;;;;;;15.07;6.15;;;2.10;81.00;;;;;;4955572;29;20139;-84
2021/01/09 18:16:54;;;;;;;13.25;5.95;;;2.20;81.50;;;;;;4955812;28;20054;-84
2021/01/09 18:22:42;;;;;;;14.30;5.63;;;2.20;81.30;;;;;;4958648;29;20041;-83
2021/01/09 18:28:30;;;;;;;12.60;5.63;;;2.20;81.50;;;;;;4959115;29;20467;-83
2021/01/09 18:34:17;;;;;;;13.20;6.13;;;2.20;81.40;;;;;;4958758;29;20030;-83
2021/01/09 18:40:06;;;;;;;14.98;6.55;;;2.20;81.20;;;;;;4959106;29;20530;-84
2021/01/09 18:49:29;;;;;;;11.73;5.28;;;2.20;81.10;;;;;;4964226;29;20102;-84
2021/01/09 18:55:16;;;;;;;13.75;6.38;;;2.30;81.50;;;;;;4958490;29;20058;-84
2021/01/09 19:01:06;;;;;;;12.85;5.95;;;2.30;81.50;;;;;;4958791;29;20054;-83
2021/01/09 19:07:00;;;;;;;12.93;5.35;;;2.30;81.20;;;;;;4958016;29;20128;-84
2021/01/09 19:12:48;;;;;;;13.60;5.60;;;2.30;81.00;;;;;;4958002;29;20055;-84
2021/01/09 19:18:37;;;;;;;15.07;6.30;;;2.30;81.30;;;;;;4958061;29;20087;-84
2021/01/09 19:24:25;;;;;;;20.60;8.57;;;2.30;81.10;;;;;;4957744;29;20041;-84
2021/01/09 19:30:13;;;;;;;15.82;6.72;;;2.30;81.20;;;;;;4956917;28;20042;-84
2021/01/09 19:36:01;;;;;;;11.82;5.78;;;2.20;81.00;;;;;;4957957;29;20175;-84
2021/01/09 19:41:50;;;;;;;13.68;6.43;;;2.30;81.10;;;;;;4957492;29;20038;-84
2021/01/09 19:51:26;;;;;;;11.88;5.47;;;2.30;81.20;;;;;;4957739;29;20070;-84
2021/01/09 19:57:13;;;;;;;14.63;6.95;;;2.30;81.30;;;;;;4957027;29;20106;-84
2021/01/09 20:03:01;;;;;;;13.50;6.00;;;2.40;81.30;;;;;;4956683;29;20118;-84
2021/01/09 20:08:48;;;;;;;13.93;6.43;;;2.40;81.20;;;;;;4957799;29;20095;-84
2021/01/09 20:14:36;;;;;;;14.60;6.72;;;2.40;81.60;;;;;;4956996;29;20049;-84
2021/01/09 20:20:24;;;;;;;13.93;6.57;;;2.50;81.30;;;;;;4956749;29;20090;-84
2021/01/09 20:26:12;;;;;;;14.25;6.50;;;2.50;81.10;;;;;;4956833;29;20045;-84
2021/01/09 20:32:04;;;;;;;14.05;5.95;;;2.40;80.90;;;;;;4956413;29;20071;-82
2021/01/09 20:37:52;;;;;;;21.33;11.57;;;2.50;81.40;;;;;;4956733;29;20502;-82
2021/01/09 20:43:40;;;;;;;16.15;7.40;;;2.40;80.90;;;;;;4956746;29;20479;-82
2021/01/09 20:53:03;;;;;;;16.15;6.80;;;2.40;81.10;;;;;;4956901;29;20040;-81
2021/01/09 20:58:51;;;;;;;12.30;5.78;;;2.30;80.80;;;;;;4957292;29;20546;-82
2021/01/09 21:04:42;;;;;;;12.02;5.75;;;2.30;80.90;;;;;;4956770;29;20447;-81
2021/01/09 21:10:29;;;;;;;12.50;5.78;;;2.30;80.90;;;;;;4956687;29;20121;-81
2021/01/09 21:16:17;;;;;;;13.70;5.82;;;2.30;80.80;;;;;;4956130;29;20070;-81
2021/01/09 21:22:05;;;;;;;11.60;5.15;;;2.30;80.70;;;;;;4955911;29;20027;-81
2021/01/09 21:27:53;;;;;;;12.60;5.88;;;2.30;80.90;;;;;;4956218;29;20471;-81
2021/01/09 21:33:40;;;;;;;13.65;5.90;;;2.30;80.90;;;;;;4957788;29;20045;-80
2021/01/09 21:39:29;;;;;;;12.02;5.47;;;2.30;80.90;;;;;;4956574;29;20031;-81
2021/01/09 21:45:16;;;;;;;14.00;5.65;;;2.30;80.80;;;;;;4955744;29;20562;-83
2021/01/09 21:54:32;;;;;;;13.95;4.95;;;2.30;80.80;;;;;;4958958;29;20407;-81
2021/01/09 22:00:25;;;;;;;12.48;4.78;;;2.30;81.10;;;;;;4958902;29;20042;-81
2021/01/09 22:06:13;;;;;;;12.60;5.15;;;2.40;81.00;;;;;;4958805;29;20047;-81
2021/01/09 22:12:01;;;;;;;9.88;4.10;;;2.40;80.80;;;;;;4958601;29;20090;-82
2021/01/09 22:17:50;;;;;;;13.10;4.88;;;2.40;81.00;;;;;;4958925;29;20038;-82
2021/01/09 22:23:37;;;;;;;10.65;4.53;;;2.40;80.80;;;;;;4958698;29;20030;-82
2021/01/09 22:29:25;;;;;;;11.40;4.97;;;2.30;80.60;;;;;;4958342;29;20070;-82
2021/01/09 22:35:12;;;;;;;11.88;5.25;;;2.30;80.50;;;;;;4958536;29;20095;-81
2021/01/09 22:41:00;;;;;;;13.85;5.82;;;2.20;80.70;;;;;;4958347;29;20039;-81
2021/01/09 22:46:53;;;;;;;12.75;5.05;;;2.20;80.60;;;;;;4958145;29;20547;-81
2021/01/09 22:56:16;;;;;;;13.70;5.43;;;2.30;80.80;;;;;;4957814;29;20054;-80
2021/01/09 23:02:04;;;;;;;13.20;4.85;;;2.30;80.90;;;;;;4957843;29;20049;-81
2021/01/09 23:07:51;;;;;;;10.88;4.93;;;2.20;80.60;;;;;;4957764;29;20041;-80
2021/01/09 23:13:39;;;;;;;13.32;5.80;;;2.30;80.60;;;;;;4957929;29;20538;-81
2021/01/09 23:19:26;;;;;;;13.02;5.57;;;2.30;80.60;;;;;;4957563;29;20042;-81
2021/01/09 23:25:19;;;;;;;12.32;4.97;;;2.20;80.60;;;;;;4957308;29;20030;-81
2021/01/09 23:31:07;;;;;;;11.38;4.78;;;2.20;80.60;;;;;;4957318;29;20050;-83
2021/01/09 23:36:55;;;;;;;11.27;4.55;;;2.20;80.60;;;;;;4957263;29;20078;-81
2021/01/09 23:42:43;;;;;;;11.68;4.97;;;2.30;80.80;;;;;;4957260;29;20083;-82
2021/01/09 23:48:32;;;;;;;13.05;5.55;;;2.30;80.70;;;;;;4956698;29;20043;-80
2021/01/09 23:58:10;;;;;;;14.00;5.65;;;2.10;80.10;;;;;;4956930;29;20034;-80
